Time;durP1;ratioP1;P1;durP2;ratioP2;P2;SDS_P1;SDS_P2;PMS_P1;PMS_P2;Temp;Humidity;BMP_temperature;BMP_pressure;BME280_temperature;BME280_humidity;BME280_pressure;Samples;Min_cycle;Max_cycle;Signal;HPM_P1;HPM_P2
2023/09/20 00:00:13;;;;;;;4.45;1.77;;;17.30;99.90;;;;;;5062308;28;20041;-73
2023/09/20 00:02:42;;;;;;;10.70;2.63;;;17.30;99.90;;;;;;5062803;28;20017;-72
2023/09/20 00:05:15;;;;;;;7.45;2.70;;;17.30;99.90;;;;;;5064221;28;20112;-79
2023/09/20 00:07:42;;;;;;;8.05;2.10;;;17.30;99.90;;;;;;5064019;28;20060;-74
2023/09/20 00:10:15;;;;;;;6.40;2.60;;;17.40;99.90;;;;;;5062585;28;20037;-75
2023/09/20 00:12:41;;;;;;;10.07;2.38;;;17.40;99.90;;;;;;5064245;28;20103;-72
2023/09/20 00:15:11;;;;;;;12.38;2.60;;;17.40;99.90;;;;;;5062660;28;20040;-74
2023/09/20 00:17:37;;;;;;;10.43;2.30;;;17.40;99.90;;;;;;5062804;28;20017;-72
2023/09/20 00:20:06;;;;;;;7.57;1.92;;;17.40;99.90;;;;;;5062385;28;20045;-75
2023/09/20 00:22:31;;;;;;;13.50;2.53;;;17.40;99.90;;;;;;5061704;28;20025;-71
2023/09/20 00:24:59;;;;;;;13.60;2.00;;;17.40;99.90;;;;;;5062269;28;20047;-72
2023/09/20 00:27:25;;;;;;;11.73;2.20;;;17.40;99.90;;;;;;5062267;28;20378;-73
2023/09/20 00:29:51;;;;;;;5.93;2.10;;;17.40;99.90;;;;;;5063437;28;20056;-76
2023/09/20 00:32:18;;;;;;;11.27;2.83;;;17.40;99.90;;;;;;5062252;28;20048;-76
2023/09/20 00:34:43;;;;;;;7.57;2.28;;;17.40;99.90;;;;;;5063524;28;20103;-71
2023/09/20 00:37:09;;;;;;;13.25;2.90;;;17.40;99.90;;;;;;5062922;28;20037;-70
2023/09/20 00:39:36;;;;;;;5.68;1.95;;;17.40;99.90;;;;;;5063792;28;20033;-74
2023/09/20 00:42:02;;;;;;;7.30;2.08;;;17.40;99.90;;;;;;5061959;28;20029;-74
2023/09/20 00:44:28;;;;;;;8.57;2.40;;;17.40;99.90;;;;;;5061986;28;20075;-78
2023/09/20 00:46:55;;;;;;;7.88;2.00;;;17.40;99.90;;;;;;5061940;28;20074;-75
2023/09/20 00:49:20;;;;;;;7.85;2.72;;;17.40;99.90;;;;;;5061771;28;20033;-76
2023/09/20 00:51:47;;;;;;;9.93;2.00;;;17.40;99.90;;;;;;5062921;28;20021;-74
2023/09/20 00:54:15;;;;;;;10.75;2.20;;;17.50;99.90;;;;;;5063684;28;20033;-73
2023/09/20 00:56:41;;;;;;;8.23;1.80;;;17.50;99.90;;;;;;5059833;28;20048;-75
2023/09/20 00:59:07;;;;;;;8.68;2.08;;;17.50;99.90;;;;;;5061302;28;20112;-73
2023/09/20 01:01:39;;;;;;;11.38;2.78;;;17.50;99.90;;;;;;5062776;28;20175;-73
2023/09/20 01:04:05;;;;;;;8.27;2.25;;;17.50;99.90;;;;;;5060602;28;20119;-74
2023/09/20 01:06:32;;;;;;;9.50;2.45;;;17.50;99.90;;;;;;5062592;28;20436;-73
2023/09/20 01:08:58;;;;;;;13.52;2.60;;;17.50;99.90;;;;;;5062072;28;20107;-72
2023/09/20 01:11:25;;;;;;;7.20;2.22;;;17.50;99.90;;;;;;5061149;28;20056;-73
2023/09/20 01:13:51;;;;;;;9.27;2.22;;;17.50;99.90;;;;;;5062439;28;20052;-73
2023/09/20 01:16:21;;;;;;;10.00;2.30;;;17.50;99.90;;;;;;5062126;28;20142;-76
2023/09/20 01:18:53;;;;;;;9.05;2.47;;;17.50;99.90;;;;;;5060550;28;20580;-75
2023/09/20 01:21:22;;;;;;;7.70;1.98;;;17.40;99.90;;;;;;5062143;28;20037;-73
2023/09/20 01:23:49;;;;;;;7.85;2.58;;;17.50;99.90;;;;;;5062178;28;20020;-74
2023/09/20 01:26:16;;;;;;;6.00;2.40;;;17.50;99.90;;;;;;5062315;28;20021;-75
2023/09/20 01:28:42;;;;;;;5.82;2.67;;;17.50;99.90;;;;;;5062365;28;20037;-73
2023/09/20 01:31:26;;;;;;;8.30;2.60;;;17.50;99.90;;;;;;5061550;28;20043;-70
2023/09/20 01:33:52;;;;;;;9.90;1.97;;;17.40;99.90;;;;;;5061788;28;20024;-73
2023/09/20 01:36:18;;;;;;;6.95;2.38;;;17.40;99.90;;;;;;5061753;28;20283;-75
2023/09/20 01:38:45;;;;;;;5.07;2.10;;;17.40;99.90;;;;;;5060826;28;20510;-72
2023/09/20 01:41:14;;;;;;;6.53;1.98;;;17.40;99.90;;;;;;5061913;28;20029;-74
2023/09/20 01:43:43;;;;;;;7.20;1.98;;;17.40;99.90;;;;;;5061997;28;20025;-72
2023/09/20 01:46:11;;;;;;;6.07;2.08;;;17.40;99.90;;;;;;5060700;28;20053;-75
2023/09/20 01:48:37;;;;;;;8.82;2.40;;;17.40;99.90;;;;;;5060999;28;20021;-73
2023/09/20 01:51:03;;;;;;;10.20;2.20;;;17.40;99.90;;;;;;5060466;28;20059;-72
2023/09/20 01:53:29;;;;;;;7.82;2.20;;;17.40;99.90;;;;;;5061467;28;20029;-74
2023/09/20 01:55:57;;;;;;;5.18;2.75;;;17.40;99.90;;;;;;5061474;28;20021;-75
2023/09/20 01:58:23;;;;;;;9.98;2.67;;;17.40;99.90;;;;;;5061437;28;20027;-71
2023/09/20 02:00:52;;;;;;;10.68;2.47;;;17.40;99.90;;;;;;5061127;28;20033;-74
2023/09/20 02:03:18;;;;;;;6.60;2.03;;;17.40;99.90;;;;;;5061698;28;20050;-73
2023/09/20 02:05:47;;;;;;;12.02;2.60;;;17.40;99.90;;;;;;5061868;28;20032;-73
2023/09/20 02:08:13;;;;;;;10.80;2.88;;;17.40;99.90;;;;;;5059871;28;20029;-72
2023/09/20 02:10:39;;;;;;;7.47;2.58;;;17.40;99.90;;;;;;5061424;28;20805;-73
2023/09/20 02:13:05;;;;;;;13.68;2.67;;;17.40;99.90;;;;;;5059379;28;20020;-75
2023/09/20 02:15:34;;;;;;;6.35;2.30;;;17.30;99.90;;;;;;5060487;28;20017;-72
2023/09/20 02:18:01;;;;;;;9.45;2.88;;;17.40;99.90;;;;;;5060948;28;20059;-74
2023/09/20 02:20:31;;;;;;;7.63;2.80;;;17.30;99.90;;;;;;5060784;28;20037;-74
2023/09/20 02:22:57;;;;;;;9.05;2.47;;;17.30;99.90;;;;;;5060687;28;20027;-71
2023/09/20 02:25:26;;;;;;;6.70;2.60;;;17.30;99.90;;;;;;5061420;28;20045;-72
2023/09/20 02:27:53;;;;;;;10.40;2.90;;;17.40;99.90;;;;;;5059647;28;20025;-74
2023/09/20 02:30:24;;;;;;;5.55;2.90;;;17.40;99.90;;;;;;5059725;28;20032;-76
2023/09/20 02:32:52;;;;;;;7.40;2.50;;;17.40;99.90;;;;;;5059194;28;20029;-75
2023/09/20 02:35:18;;;;;;;10.15;2.65;;;17.40;99.90;;;;;;5059092;28;20067;-73
2023/09/20 02:37:46;;;;;;;10.32;2.90;;;17.40;99.90;;;;;;5061245;28;20085;-75
2023/09/20 02:40:15;;;;;;;10.52;3.70;;;17.40;99.90;;;;;;5061071;28;20051;-74
2023/09/20 02:42:53;;;;;;;7.90;2.53;;;17.40;99.90;;;;;;5059770;28;20021;-73
2023/09/20 02:45:23;;;;;;;11.25;3.03;;;17.40;99.90;;;;;;5060331;28;20033;-73
2023/09/20 02:47:49;;;;;;;12.18;2.85;;;17.40;99.90;;;;;;5059853;28;20068;-71
2023/09/20 02:50:22;;;;;;;12.60;3.03;;;17.50;99.90;;;;;;5060731;28;20021;-73
2023/09/20 02:52:48;;;;;;;11.93;3.15;;;17.50;99.90;;;;;;5061522;28;20029;-73
2023/09/20 02:55:15;;;;;;;10.88;3.28;;;17.50;99.90;;;;;;5061596;28;20025;-76
2023/09/20 02:57:42;;;;;;;10.60;3.17;;;17.50;99.90;;;;;;5059474;28;20017;-76
2023/09/20 03:00:16;;;;;;;14.65;3.63;;;17.50;99.90;;;;;;5061711;28;20037;-76
2023/09/20 03:02:47;;;;;;;8.60;3.53;;;17.60;99.90;;;;;;5065121;28;20077;-76
2023/09/20 03:05:15;;;;;;;8.45;3.22;;;17.60;99.90;;;;;;5064191;28;20036;-74
2023/09/20 03:07:42;;;;;;;9.80;3.47;;;17.60;99.90;;;;;;5066397;28;20028;-76
2023/09/20 03:10:12;;;;;;;7.45;2.80;;;17.60;99.90;;;;;;5064009;28;20031;-76
2023/09/20 03:12:43;;;;;;;9.10;3.13;;;17.60;99.90;;;;;;5064109;28;20092;-74
2023/09/20 03:15:17;;;;;;;10.90;3.00;;;17.60;99.90;;;;;;5065053;28;20035;-75
2023/09/20 03:17:44;;;;;;;10.17;3.03;;;17.70;99.90;;;;;;5061796;28;20025;-72
2023/09/20 03:20:10;;;;;;;8.07;2.97;;;17.70;99.90;;;;;;5064705;28;21916;-72
2023/09/20 03:22:39;;;;;;;10.35;2.92;;;17.70;99.90;;;;;;5064539;28;20024;-74
2023/09/20 03:25:14;;;;;;;9.70;2.40;;;17.70;99.90;;;;;;5064656;28;20131;-72
2023/09/20 03:27:42;;;;;;;8.98;2.47;;;17.70;99.90;;;;;;5063507;28;20036;-74
2023/09/20 03:30:11;;;;;;;7.68;2.45;;;17.70;99.90;;;;;;5063565;28;20056;-74
2023/09/20 03:32:39;;;;;;;11.05;2.90;;;17.70;99.90;;;;;;5062780;28;20021;-74
2023/09/20 03:35:08;;;;;;;12.68;3.00;;;17.70;99.90;;;;;;5061428;28;20049;-75
2023/09/20 03:37:36;;;;;;;7.72;2.65;;;17.70;99.90;;;;;;5064143;28;20138;-73
2023/09/20 03:40:06;;;;;;;10.55;3.72;;;17.70;99.90;;;;;;5064137;28;20021;-73
2023/09/20 03:42:32;;;;;;;7.70;3.05;;;17.70;99.90;;;;;;5064310;28;20021;-74
2023/09/20 03:44:58;;;;;;;11.05;3.20;;;17.70;99.90;;;;;;5062676;28;20140;-75
2023/09/20 03:47:27;;;;;;;8.32;2.35;;;17.70;99.90;;;;;;5062648;28;20489;-72
2023/09/20 03:49:53;;;;;;;9.85;2.60;;;17.70;99.90;;;;;;5063134;28;20466;-76
2023/09/20 03:52:19;;;;;;;9.45;2.45;;;17.80;99.90;;;;;;5062600;28;20526;-76
2023/09/20 03:54:51;;;;;;;10.32;2.50;;;17.70;99.90;;;;;;5062728;28;20025;-74
2023/09/20 03:57:19;;;;;;;11.52;2.78;;;17.70;99.90;;;;;;5061972;28;20032;-75
2023/09/20 03:59:47;;;;;;;8.55;2.70;;;17.80;99.90;;;;;;5062586;28;20047;-75
2023/09/20 04:02:14;;;;;;;11.23;2.60;;;17.80;99.90;;;;;;5063880;28;20374;-75
2023/09/20 04:04:40;;;;;;;9.50;2.47;;;17.80;99.90;;;;;;5062398;28;20116;-74
2023/09/20 04:07:07;;;;;;;8.88;3.10;;;17.80;99.90;;;;;;5062025;28;20029;-75
2023/09/20 04:09:33;;;;;;;6.32;2.63;;;17.80;99.90;;;;;;5061587;28;20095;-76
2023/09/20 04:11:59;;;;;;;9.35;2.50;;;17.80;99.90;;;;;;5062510;28;20044;-74
2023/09/20 04:14:25;;;;;;;12.05;2.38;;;17.80;99.90;;;;;;5061205;28;20029;-75
2023/09/20 04:16:53;;;;;;;11.30;2.55;;;17.80;99.90;;;;;;5063739;28;20043;-75
2023/09/20 04:19:22;;;;;;;8.18;2.72;;;17.80;99.90;;;;;;5063338;28;20036;-74
2023/09/20 04:21:49;;;;;;;7.97;2.65;;;17.90;99.90;;;;;;5061827;28;20032;-75
2023/09/20 04:24:17;;;;;;;6.70;2.63;;;17.90;99.90;;;;;;5063935;28;20043;-74
2023/09/20 04:26:42;;;;;;;6.90;2.47;;;17.90;99.90;;;;;;5063826;28;20504;-72
2023/09/20 04:29:08;;;;;;;9.77;2.58;;;17.90;99.90;;;;;;5063596;28;20025;-76
2023/09/20 04:31:34;;;;;;;9.23;2.53;;;17.90;99.90;;;;;;5062302;28;20021;-75
2023/09/20 04:34:02;;;;;;;7.57;2.85;;;17.90;99.90;;;;;;5063826;28;20025;-75
2023/09/20 04:36:28;;;;;;;9.57;2.67;;;17.90;99.90;;;;;;5061375;28;20044;-76
2023/09/20 04:38:57;;;;;;;6.97;2.92;;;17.90;99.90;;;;;;5061313;28;20037;-73
2023/09/20 04:41:23;;;;;;;13.57;3.00;;;17.90;99.90;;;;;;5060810;28;20139;-76
2023/09/20 04:43:49;;;;;;;11.00;3.05;;;17.90;99.90;;;;;;5061934;28;20048;-75
2023/09/20 04:46:15;;;;;;;9.98;3.30;;;17.90;99.90;;;;;;5061488;28;20037;-75
2023/09/20 04:48:41;;;;;;;12.32;3.95;;;17.90;99.90;;;;;;5061765;28;20037;-74
2023/09/20 04:51:07;;;;;;;9.82;3.20;;;17.90;99.90;;;;;;5062920;28;20021;-73
2023/09/20 04:53:36;;;;;;;12.43;3.63;;;17.80;99.90;;;;;;5062464;28;20036;-75
2023/09/20 04:56:02;;;;;;;10.63;3.45;;;17.90;99.90;;;;;;5061725;28;20063;-72
2023/09/20 04:58:28;;;;;;;15.40;3.78;;;17.80;99.90;;;;;;5061948;28;20025;-73
2023/09/20 05:00:54;;;;;;;11.27;3.50;;;17.80;99.90;;;;;;5059651;28;20041;-75
2023/09/20 05:03:20;;;;;;;8.85;3.33;;;17.80;99.90;;;;;;5062039;28;20150;-74
2023/09/20 05:05:51;;;;;;;8.27;2.67;;;17.80;99.90;;;;;;5060345;28;20097;-74
2023/09/20 05:08:18;;;;;;;11.10;3.17;;;17.80;99.90;;;;;;5061685;28;20037;-78
2023/09/20 05:10:44;;;;;;;10.98;3.67;;;17.90;99.90;;;;;;5060478;28;20040;-73
2023/09/20 05:13:09;;;;;;;15.70;3.38;;;17.90;99.90;;;;;;5061581;28;20033;-76
2023/09/20 05:15:36;;;;;;;8.90;3.42;;;17.90;99.90;;;;;;5060862;28;20021;-74
2023/09/20 05:18:04;;;;;;;11.30;3.30;;;17.90;99.90;;;;;;5062909;28;20025;-76
2023/09/20 05:20:31;;;;;;;9.80;3.28;;;17.90;99.90;;;;;;5061335;28;20049;-74
2023/09/20 05:22:58;;;;;;;12.90;3.70;;;17.90;99.90;;;;;;5062140;28;20375;-72
2023/09/20 05:25:23;;;;;;;9.90;3.30;;;17.80;99.90;;;;;;5062991;28;20025;-76
2023/09/20 05:27:49;;;;;;;10.95;3.92;;;17.90;99.90;;;;;;5062436;28;20045;-75
2023/09/20 05:30:17;;;;;;;13.05;3.33;;;17.80;99.90;;;;;;5060925;28;20028;-75
2023/09/20 05:32:45;;;;;;;13.15;3.60;;;17.80;99.90;;;;;;5059618;28;20122;-71
2023/09/20 05:35:11;;;;;;;10.55;3.03;;;17.70;99.90;;;;;;5060051;28;20041;-72
2023/09/20 05:37:38;;;;;;;11.90;3.50;;;17.70;99.90;;;;;;5061993;28;20100;-70
2023/09/20 05:40:28;;;;;;;10.57;3.33;;;17.70;99.90;;;;;;5062052;28;20047;-74
2023/09/20 05:42:54;;;;;;;12.10;3.83;;;17.70;99.90;;;;;;5062200;28;20017;-71
2023/09/20 05:45:20;;;;;;;12.75;3.47;;;17.60;99.90;;;;;;5061546;28;20029;-75
2023/09/20 05:47:46;;;;;;;9.55;2.90;;;17.60;99.90;;;;;;5060244;28;20084;-72
2023/09/20 05:50:13;;;;;;;11.63;3.13;;;17.50;99.90;;;;;;5061481;28;20017;-74
2023/09/20 05:52:41;;;;;;;11.98;3.28;;;17.50;99.90;;;;;;5059976;28;20093;-74
2023/09/20 05:55:13;;;;;;;7.15;3.25;;;17.50;99.90;;;;;;5062479;28;20028;-71
2023/09/20 05:57:43;;;;;;;15.60;3.35;;;17.50;99.90;;;;;;5062173;28;20029;-71
2023/09/20 06:00:22;;;;;;;9.90;3.45;;;17.50;99.90;;;;;;5061928;28;20055;-70
2023/09/20 06:02:49;;;;;;;12.35;3.30;;;17.50;99.90;;;;;;5062118;28;20017;-72
2023/09/20 06:05:15;;;;;;;9.57;3.22;;;17.40;99.90;;;;;;5061666;28;20024;-73
2023/09/20 06:07:41;;;;;;;13.60;3.78;;;17.40;99.90;;;;;;5062455;28;20017;-73
2023/09/20 06:10:10;;;;;;;8.98;3.70;;;17.40;99.90;;;;;;5061435;28;20055;-73
2023/09/20 06:12:36;;;;;;;12.32;2.88;;;17.40;99.90;;;;;;5061491;28;20142;-72
2023/09/20 06:15:03;;;;;;;8.35;2.95;;;17.40;99.90;;;;;;5061897;28;20111;-73
2023/09/20 06:17:31;;;;;;;11.73;3.20;;;17.40;99.90;;;;;;5060439;28;20029;-70
2023/09/20 06:19:58;;;;;;;13.88;3.25;;;17.40;99.90;;;;;;5061169;28;20054;-73
2023/09/20 06:22:33;;;;;;;9.10;3.03;;;17.40;99.90;;;;;;5060907;28;20021;-73
2023/09/20 06:24:58;;;;;;;9.57;2.80;;;17.40;99.90;;;;;;5060321;28;20036;-70
2023/09/20 06:27:25;;;;;;;6.78;2.80;;;17.40;99.90;;;;;;5060200;28;20021;-70
2023/09/20 06:29:51;;;;;;;9.15;3.40;;;17.40;99.90;;;;;;5061761;28;20041;-73
2023/09/20 06:32:17;;;;;;;14.48;3.10;;;17.40;99.90;;;;;;5061812;28;20024;-75
2023/09/20 06:34:42;;;;;;;11.38;3.15;;;17.40;99.90;;;;;;5060817;28;20051;-71
2023/09/20 06:37:11;;;;;;;13.95;3.03;;;17.40;99.90;;;;;;5061856;28;20021;-72
2023/09/20 06:39:37;;;;;;;10.98;3.40;;;17.40;99.90;;;;;;5060240;28;20021;-72
2023/09/20 06:42:04;;;;;;;8.80;3.58;;;17.50;99.90;;;;;;5059858;28;20079;-70
2023/09/20 06:44:38;;;;;;;10.00;2.90;;;17.50;99.90;;;;;;5061302;28;20024;-69
2023/09/20 06:47:05;;;;;;;10.02;2.78;;;17.50;99.90;;;;;;5061701;28;20103;-73
2023/09/20 06:49:31;;;;;;;10.50;3.13;;;17.50;99.90;;;;;;5060312;28;20039;-74
2023/09/20 06:52:01;;;;;;;9.13;3.10;;;17.50;99.90;;;;;;5060515;28;20028;-72
2023/09/20 06:54:28;;;;;;;11.15;3.13;;;17.50;99.90;;;;;;5059547;28;20047;-76
2023/09/20 06:57:02;;;;;;;11.55;3.00;;;17.60;99.90;;;;;;5060014;28;20071;-72
2023/09/20 06:59:27;;;;;;;8.32;2.80;;;17.60;99.90;;;;;;5060606;28;20494;-74
2023/09/20 07:01:55;;;;;;;11.63;2.75;;;17.70;99.90;;;;;;5061185;28;20100;-73
2023/09/20 07:04:21;;;;;;;11.20;2.85;;;17.70;99.90;;;;;;5061273;28;20058;-72
2023/09/20 07:06:46;;;;;;;7.53;2.65;;;17.60;99.90;;;;;;5061398;28;20024;-73
2023/09/20 07:09:12;;;;;;;12.23;3.15;;;17.60;99.90;;;;;;5061202;28;20029;-73
2023/09/20 07:11:38;;;;;;;12.30;2.90;;;17.60;99.90;;;;;;5060354;28;20029;-70
2023/09/20 07:14:05;;;;;;;13.63;2.90;;;17.70;99.90;;;;;;5061738;28;20035;-71
2023/09/20 07:16:33;;;;;;;8.00;3.05;;;17.70;99.90;;;;;;5060965;28;20033;-71
2023/09/20 07:19:04;;;;;;;8.73;2.83;;;17.70;99.90;;;;;;5061110;28;20017;-71
2023/09/20 07:21:29;;;;;;;7.72;3.10;;;17.80;99.90;;;;;;5061067;28;20048;-72
2023/09/20 07:23:59;;;;;;;8.80;3.13;;;17.80;99.90;;;;;;5060827;28;20021;-72
2023/09/20 07:26:26;;;;;;;8.65;2.90;;;17.90;99.90;;;;;;5061027;28;20017;-70
2023/09/20 07:28:51;;;;;;;11.98;2.78;;;17.90;99.90;;;;;;5060173;28;20013;-72
2023/09/20 07:31:21;;;;;;;13.38;3.35;;;18.00;99.90;;;;;;5060028;28;20055;-71
2023/09/20 07:33:48;;;;;;;9.82;3.08;;;18.10;99.90;;;;;;5061040;28;20037;-71
2023/09/20 07:36:15;;;;;;;8.18;3.25;;;18.10;99.90;;;;;;5060406;28;20509;-70
2023/09/20 07:38:41;;;;;;;13.10;3.40;;;18.20;99.90;;;;;;5061172;28;20620;-73
2023/09/20 07:41:13;;;;;;;12.63;3.05;;;18.10;99.90;;;;;;5060668;28;20061;-70
2023/09/20 07:43:45;;;;;;;8.93;3.05;;;18.10;99.90;;;;;;5061256;28;20025;-71
2023/09/20 07:46:13;;;;;;;10.52;2.83;;;18.10;99.90;;;;;;5061481;28;20025;-70
2023/09/20 07:48:50;;;;;;;11.48;3.35;;;18.00;99.90;;;;;;5064282;28;20033;-71
2023/09/20 07:51:20;;;;;;;11.23;3.28;;;18.00;99.90;;;;;;5064444;28;20020;-74
2023/09/20 07:53:49;;;;;;;10.23;3.10;;;18.10;99.90;;;;;;5064232;28;20079;-71
2023/09/20 07:56:15;;;;;;;11.35;3.13;;;18.00;99.90;;;;;;5064318;28;20466;-72
2023/09/20 07:58:40;;;;;;;12.75;3.70;;;18.00;99.90;;;;;;5064035;28;20059;-71
2023/09/20 08:01:12;;;;;;;11.52;3.35;;;18.10;99.90;;;;;;5062473;28;20029;-70
2023/09/20 08:04:06;;;;;;;9.45;3.00;;;18.10;99.90;;;;;;5064111;28;20017;-75
2023/09/20 08:06:29;;;;;;;13.23;3.40;;;18.10;99.90;;;;;;5063610;28;20028;-71
2023/09/20 08:08:56;;;;;;;13.35;3.15;;;18.20;99.90;;;;;;5062819;28;20032;-71
2023/09/20 08:11:22;;;;;;;9.57;3.35;;;18.30;99.90;;;;;;5064195;28;20025;-73
2023/09/20 08:13:52;;;;;;;9.93;3.05;;;18.40;99.90;;;;;;5064198;28;20079;-72
2023/09/20 08:16:19;;;;;;;8.75;3.03;;;18.60;99.90;;;;;;5063719;28;20137;-74
2023/09/20 08:21:32;;;;;;;;;;;18.80;99.90;;;;;;5062815;28;20086;-70
2023/09/20 09:00:24;;;;;;;10.80;3.00;;;18.80;99.90;;;;;;5060760;28;20048;-72
2023/09/20 09:02:58;;;;;;;8.07;3.15;;;18.70;99.90;;;;;;5060582;28;20031;-76
2023/09/20 09:05:28;;;;;;;8.38;3.00;;;18.80;99.90;;;;;;5063019;28;20039;-71
2023/09/20 09:07:56;;;;;;;11.00;2.78;;;18.80;99.90;;;;;;5057880;28;20033;-71
2023/09/20 09:10:22;;;;;;;11.55;3.05;;;18.80;99.90;;;;;;5061663;28;20060;-74
2023/09/20 09:12:48;;;;;;;7.65;2.42;;;18.90;99.90;;;;;;5058748;28;20489;-71
2023/09/20 09:15:18;;;;;;;8.27;2.63;;;18.90;99.90;;;;;;5060154;28;20029;-75
2023/09/20 09:17:47;;;;;;;8.65;2.63;;;19.10;99.90;;;;;;5060748;28;20036;-72
2023/09/20 09:20:15;;;;;;;10.45;3.03;;;19.20;99.90;;;;;;5062840;28;20029;-72
2023/09/20 09:22:43;;;;;;;8.27;2.63;;;19.40;99.90;;;;;;5060754;28;20032;-72
2023/09/20 09:25:14;;;;;;;9.52;3.05;;;19.40;99.90;;;;;;5061767;28;20017;-72
2023/09/20 09:27:42;;;;;;;8.02;2.80;;;19.50;99.90;;;;;;5062592;28;20033;-69
2023/09/20 09:30:17;;;;;;;11.95;2.47;;;19.60;99.90;;;;;;5062354;28;21066;-72
2023/09/20 09:32:45;;;;;;;10.70;2.80;;;19.50;99.90;;;;;;5055234;28;20028;-69
2023/09/20 09:35:12;;;;;;;12.73;3.50;;;19.70;99.90;;;;;;5060403;28;20053;-71
2023/09/20 09:37:39;;;;;;;11.05;2.70;;;19.90;99.90;;;;;;5061547;28;20028;-72
2023/09/20 09:40:06;;;;;;;10.50;3.30;;;20.00;99.90;;;;;;5061594;28;20013;-69
2023/09/20 09:42:32;;;;;;;7.63;2.60;;;20.00;99.90;;;;;;5061018;28;20025;-69
2023/09/20 09:44:58;;;;;;;8.30;3.00;;;20.00;99.90;;;;;;5062451;28;20056;-73
2023/09/20 09:47:25;;;;;;;8.82;2.70;;;20.10;99.90;;;;;;5061864;28;20021;-70
2023/09/20 09:49:53;;;;;;;14.10;3.30;;;20.20;99.90;;;;;;5062013;28;20074;-72
2023/09/20 09:52:26;;;;;;;10.38;3.33;;;20.30;99.90;;;;;;5062038;28;20218;-72
2023/09/20 09:54:52;;;;;;;6.78;2.85;;;20.50;99.90;;;;;;5061456;28;20056;-70
2023/09/20 09:57:18;;;;;;;11.52;3.33;;;20.70;99.90;;;;;;5060629;28;20089;-71
2023/09/20 09:59:48;;;;;;;7.65;3.08;;;20.70;99.90;;;;;;5062007;28;20080;-70
2023/09/20 10:02:20;;;;;;;12.55;3.33;;;20.60;99.90;;;;;;5061633;28;20032;-71
2023/09/20 10:04:54;;;;;;;10.00;3.30;;;20.70;99.90;;;;;;5061962;28;20045;-70
2023/09/20 10:07:22;;;;;;;8.50;3.90;;;20.70;99.90;;;;;;5057623;28;20083;-68
2023/09/20 10:09:50;;;;;;;6.75;3.20;;;20.70;99.90;;;;;;5060656;28;20055;-73
2023/09/20 10:12:19;;;;;;;8.50;3.67;;;20.80;99.90;;;;;;5060762;28;20413;-70
2023/09/20 10:14:45;;;;;;;11.77;3.83;;;20.80;99.90;;;;;;5059804;28;20108;-71
2023/09/20 10:17:20;;;;;;;10.38;3.75;;;20.80;99.90;;;;;;5057556;28;20033;-70
2023/09/20 10:19:52;;;;;;;11.50;4.32;;;20.80;99.90;;;;;;5076124;28;20048;-72
2023/09/20 10:22:21;;;;;;;9.60;4.60;;;20.80;99.90;;;;;;5059261;28;20052;-70
2023/09/20 10:24:54;;;;;;;12.30;4.55;;;20.90;99.90;;;;;;5059293;28;20971;-73
2023/09/20 10:27:21;;;;;;;10.55;4.55;;;21.00;99.90;;;;;;5059582;28;20078;-69
2023/09/20 10:30:11;;;;;;;16.58;5.40;;;21.00;99.90;;;;;;5060057;28;20017;-72
2023/09/20 10:32:57;;;;;;;11.48;4.68;;;21.00;99.90;;;;;;5059651;28;20103;-69
2023/09/20 10:35:35;;;;;;;8.43;4.65;;;20.90;99.90;;;;;;5061054;28;20044;-69
2023/09/20 10:38:07;;;;;;;13.13;5.13;;;20.90;99.90;;;;;;5058070;28;20028;-71
2023/09/20 10:40:45;;;;;;;15.70;6.20;;;20.80;99.90;;;;;;5060433;28;20052;-71
2023/09/20 10:43:41;;;;;;;11.13;5.65;;;20.70;99.90;;;;;;5061212;28;20029;-76
2023/09/20 10:46:19;;;;;;;9.70;5.43;;;20.80;99.90;;;;;;5061572;28;20024;-72
2023/09/20 10:48:50;;;;;;;9.82;5.95;;;20.80;99.90;;;;;;5060808;28;20068;-74
2023/09/20 10:51:48;;;;;;;9.98;5.55;;;20.90;99.90;;;;;;5059755;28;20112;-70
2023/09/20 10:54:29;;;;;;;9.18;5.70;;;21.00;99.90;;;;;;5061298;28;20041;-68
2023/09/20 10:57:02;;;;;;;17.80;6.22;;;21.00;99.90;;;;;;5059541;28;20039;-72
2023/09/20 10:59:30;;;;;;;12.02;5.65;;;21.20;99.90;;;;;;5061323;28;20040;-73
2023/09/20 11:02:00;;;;;;;11.68;5.75;;;21.40;99.90;;;;;;5060867;28;20040;-72
2023/09/20 11:04:26;;;;;;;9.82;5.72;;;21.40;99.90;;;;;;5060605;28;20036;-71
2023/09/20 11:06:53;;;;;;;12.98;5.75;;;21.30;99.90;;;;;;5060042;28;20017;-73
2023/09/20 11:09:20;;;;;;;12.32;5.68;;;21.20;99.90;;;;;;5061007;28;20096;-75
2023/09/20 11:11:47;;;;;;;15.27;6.47;;;21.30;99.90;;;;;;5060540;28;20017;-72
2023/09/20 11:14:13;;;;;;;10.90;5.45;;;21.30;99.90;;;;;;5059513;28;20021;-71
2023/09/20 11:16:43;;;;;;;17.00;4.95;;;21.20;99.90;;;;;;5061618;28;20083;-73
2023/09/20 11:19:12;;;;;;;8.93;5.38;;;21.30;99.90;;;;;;5061198;28;20091;-70
2023/09/20 11:21:42;;;;;;;10.65;4.85;;;21.40;99.90;;;;;;5063762;28;20497;-70
2023/09/20 11:24:10;;;;;;;10.35;5.43;;;21.40;99.90;;;;;;5063692;28;20036;-69
2023/09/20 11:26:36;;;;;;;9.55;4.93;;;21.70;99.90;;;;;;5064762;28;20682;-71
2023/09/20 11:29:04;;;;;;;12.02;5.30;;;21.60;99.90;;;;;;5064920;28;20047;-67
2023/09/20 11:31:32;;;;;;;11.50;5.30;;;21.60;99.90;;;;;;5063433;28;20086;-72
2023/09/20 11:34:03;;;;;;;11.60;5.35;;;21.70;99.90;;;;;;5064269;28;20032;-73
2023/09/20 11:36:35;;;;;;;9.75;4.65;;;21.80;99.90;;;;;;5064255;28;20056;-74
2023/09/20 11:39:01;;;;;;;10.65;4.35;;;21.80;99.90;;;;;;5064801;28;20025;-70
2023/09/20 11:41:29;;;;;;;9.80;4.07;;;21.80;99.90;;;;;;5063257;28;20101;-71
2023/09/20 11:44:00;;;;;;;9.40;4.68;;;21.80;99.90;;;;;;5062118;28;20128;-68
2023/09/20 11:46:34;;;;;;;7.63;3.88;;;21.80;99.90;;;;;;5064008;28;20035;-71
2023/09/20 11:49:04;;;;;;;7.82;3.80;;;21.90;99.90;;;;;;5063594;28;20516;-70
2023/09/20 11:51:30;;;;;;;11.55;3.60;;;22.00;99.90;;;;;;5062448;28;20509;-71
2023/09/20 11:53:57;;;;;;;7.28;3.80;;;22.10;99.90;;;;;;5062461;28;20025;-70
2023/09/20 11:56:29;;;;;;;8.60;3.80;;;22.00;99.90;;;;;;5062547;28;20055;-70
2023/09/20 11:58:58;;;;;;;6.65;3.50;;;22.10;99.90;;;;;;5062230;28;20025;-69
2023/09/20 12:01:24;;;;;;;9.25;3.67;;;22.10;99.90;;;;;;5063927;28;20092;-71
2023/09/20 12:03:51;;;;;;;16.83;4.38;;;22.10;99.90;;;;;;5063478;28;20048;-71
2023/09/20 12:06:18;;;;;;;11.18;4.03;;;22.10;99.90;;;;;;5064316;28;20450;-70
2023/09/20 12:08:44;;;;;;;8.30;3.67;;;22.10;99.90;;;;;;5064411;28;20466;-70
2023/09/20 12:11:10;;;;;;;8.05;3.80;;;22.30;99.90;;;;;;5064507;28;20033;-69
2023/09/20 12:13:36;;;;;;;13.20;3.78;;;22.40;99.90;;;;;;5063980;28;20118;-67
2023/09/20 12:16:02;;;;;;;7.78;3.55;;;22.40;99.90;;;;;;5064190;28;20029;-68
2023/09/20 12:18:27;;;;;;;7.15;3.20;;;22.40;99.90;;;;;;5063869;28;20029;-66
2023/09/20 12:20:55;;;;;;;12.45;4.05;;;22.50;99.90;;;;;;5064135;28;20048;-68
2023/09/20 12:23:20;;;;;;;6.20;3.33;;;22.70;99.90;;;;;;5062545;28;20029;-69
2023/09/20 12:25:46;;;;;;;6.90;3.55;;;22.80;99.90;;;;;;5062613;28;20084;-68
2023/09/20 12:28:11;;;;;;;6.28;3.45;;;22.90;99.90;;;;;;5064199;28;20025;-74
2023/09/20 12:30:39;;;;;;;7.05;3.22;;;23.10;99.90;;;;;;5062629;28;20021;-73
2023/09/20 12:33:07;;;;;;;9.68;3.08;;;23.20;99.90;;;;;;5062681;28;20024;-70
2023/09/20 12:35:33;;;;;;;6.10;3.30;;;23.40;99.90;;;;;;5063068;28;20040;-74
2023/09/20 12:38:00;;;;;;;8.88;3.67;;;23.50;99.90;;;;;;5062981;28;20020;-68
2023/09/20 12:40:27;;;;;;;7.72;3.40;;;23.50;99.90;;;;;;5062531;28;20018;-71
2023/09/20 12:42:53;;;;;;;10.00;3.60;;;23.40;99.90;;;;;;5062372;28;20024;-71
2023/09/20 12:45:19;;;;;;;8.60;3.30;;;23.30;99.90;;;;;;5063722;28;20470;-71
2023/09/20 12:47:45;;;;;;;6.82;3.15;;;23.40;99.90;;;;;;5061355;28;20028;-69
2023/09/20 12:50:14;;;;;;;8.73;3.40;;;23.60;99.90;;;;;;5063906;28;20035;-66
2023/09/20 12:52:42;;;;;;;7.47;3.50;;;23.70;99.90;;;;;;5062763;28;20025;-70
2023/09/20 12:55:08;;;;;;;5.70;2.75;;;23.80;99.90;;;;;;5063798;28;20557;-68
2023/09/20 12:57:33;;;;;;;7.45;2.92;;;23.90;99.90;;;;;;5061362;28;20021;-68
2023/09/20 13:00:00;;;;;;;6.13;2.95;;;23.90;99.90;;;;;;5062970;28;20025;-69
2023/09/20 13:02:27;;;;;;;8.23;3.40;;;23.90;99.90;;;;;;5061775;28;20055;-69
2023/09/20 13:04:55;;;;;;;8.98;2.58;;;24.00;99.90;;;;;;5063110;28;20094;-68
2023/09/20 13:07:21;;;;;;;7.30;2.95;;;24.10;99.90;;;;;;5062425;28;20025;-72
2023/09/20 13:09:47;;;;;;;5.25;2.50;;;24.10;99.90;;;;;;5061285;28;20025;-71
2023/09/20 13:12:13;;;;;;;6.63;3.03;;;24.20;99.90;;;;;;5061994;28;20480;-72
2023/09/20 13:14:40;;;;;;;11.05;2.92;;;24.20;99.90;;;;;;5062747;28;20073;-70
2023/09/20 13:17:06;;;;;;;7.03;2.92;;;24.30;99.90;;;;;;5061210;28;20119;-74
2023/09/20 13:19:33;;;;;;;6.82;2.60;;;24.40;99.90;;;;;;5061297;28;20107;-70
2023/09/20 13:22:01;;;;;;;7.70;2.70;;;24.40;99.90;;;;;;5062552;28;20437;-77
2023/09/20 13:24:26;;;;;;;5.68;2.88;;;24.50;99.90;;;;;;5063236;28;20028;-70
2023/09/20 13:26:52;;;;;;;6.88;2.92;;;24.40;99.90;;;;;;5062009;28;20036;-70